createdAt,value
2018-12-21T00:01:10.633Z,1.10
2018-12-21T00:03:39.631Z,1.10
2018-12-21T00:06:08.729Z,1.00
2018-12-21T00:08:38.030Z,1.00
2018-12-21T00:11:07.147Z,1.10
2018-12-21T00:13:36.228Z,1.10
2018-12-21T00:16:05.430Z,1.10
2018-12-21T00:18:34.938Z,1.10
2018-12-21T00:21:04.139Z,1.10
2018-12-21T00:23:33.135Z,1.10
2018-12-21T00:26:02.130Z,1.10
2018-12-21T00:28:31.127Z,1.10
2018-12-21T00:31:05.752Z,1.10
2018-12-21T00:33:40.786Z,1.10
2018-12-21T00:36:15.716Z,1.10
2018-12-21T00:38:50.545Z,1.00
2018-12-21T00:41:19.565Z,1.00
2018-12-21T00:43:50.790Z,1.10
2018-12-21T00:46:22.063Z,1.10
2018-12-21T00:48:51.545Z,1.10
2018-12-21T00:51:20.746Z,1.10
2018-12-21T00:53:49.742Z,1.10
2018-12-21T00:56:18.841Z,1.10
2018-12-21T00:58:47.938Z,1.10
2018-12-21T01:01:17.652Z,1.10
2018-12-21T01:03:46.750Z,1.10
2018-12-21T01:06:15.951Z,1.10
2018-12-21T01:08:45.787Z,1.10
2018-12-21T01:11:14.863Z,1.10
2018-12-21T01:13:44.270Z,1.10
2018-12-21T01:16:13.339Z,1.10
2018-12-21T01:18:42.977Z,1.10
2018-12-21T01:21:12.690Z,1.00
2018-12-21T01:23:42.198Z,1.00
2018-12-21T01:26:11.094Z,1.00
2018-12-21T01:28:40.089Z,1.00
2018-12-21T01:31:09.085Z,1.00
2018-12-21T01:33:38.315Z,1.00
2018-12-21T01:36:07.384Z,1.00
2018-12-21T01:38:36.892Z,1.00
2018-12-21T01:41:06.603Z,1.00
2018-12-21T01:43:35.498Z,1.00
2018-12-21T01:46:04.699Z,0.90
2018-12-21T01:48:34.095Z,0.90
2018-12-21T01:51:03.129Z,0.90
2018-12-21T01:53:32.405Z,0.90
2018-12-21T01:56:01.402Z,0.90
2018-12-21T01:58:31.114Z,1.00
2018-12-21T02:01:00.099Z,1.00
2018-12-21T02:03:29.311Z,0.90
2018-12-21T02:05:58.613Z,1.00
2018-12-21T02:08:27.903Z,0.90
2018-12-21T02:10:57.015Z,0.90
2018-12-21T02:13:26.767Z,0.90
2018-12-21T02:15:55.930Z,0.90
2018-12-21T02:18:25.130Z,0.90
2018-12-21T02:20:54.552Z,0.90
2018-12-21T02:23:23.633Z,0.90
2018-12-21T02:25:52.631Z,0.90
2018-12-21T02:28:22.286Z,0.90
2018-12-21T02:30:52.056Z,0.90
2018-12-21T02:33:21.051Z,0.90
2018-12-21T02:35:50.176Z,1.00
2018-12-21T02:38:19.284Z,0.90
2018-12-21T02:40:48.597Z,0.90
2018-12-21T02:43:18.162Z,0.90
2018-12-21T02:45:47.260Z,0.90
2018-12-21T02:48:16.563Z,0.80
2018-12-21T02:50:45.662Z,0.80
2018-12-21T02:53:15.241Z,0.80
2018-12-21T02:55:44.472Z,0.80
2018-12-21T02:58:13.674Z,0.80
2018-12-21T03:00:43.235Z,0.70
2018-12-21T03:03:12.321Z,0.80
2018-12-21T03:05:41.444Z,0.80
2018-12-21T03:08:10.990Z,0.80
2018-12-21T03:10:40.087Z,0.80
2018-12-21T03:13:09.220Z,0.80
2018-12-21T03:15:38.315Z,0.90
2018-12-21T03:18:07.485Z,0.80
2018-12-21T03:20:36.689Z,0.80
2018-12-21T03:23:06.197Z,0.70
2018-12-21T03:25:35.602Z,0.80
2018-12-21T03:28:04.903Z,0.70
2018-12-21T03:30:34.653Z,0.80
2018-12-21T03:33:04.350Z,0.80
2018-12-21T03:35:33.448Z,0.80
2018-12-21T03:38:02.388Z,0.80
2018-12-21T03:40:31.435Z,0.80
2018-12-21T03:43:01.764Z,0.70
2018-12-21T03:45:30.859Z,0.70
2018-12-21T03:48:00.146Z,0.70
2018-12-21T03:50:29.960Z,0.70
2018-12-21T03:52:59.267Z,0.70
2018-12-21T03:55:28.263Z,0.70
2018-12-21T03:57:57.360Z,0.70
2018-12-21T04:00:26.561Z,0.70
2018-12-21T04:02:55.866Z,0.80
2018-12-21T04:05:25.065Z,0.80
2018-12-21T04:07:54.879Z,0.70
2018-12-21T04:10:24.699Z,0.70
2018-12-21T04:12:53.660Z,0.70
2018-12-21T04:15:22.771Z,0.70
2018-12-21T04:17:51.888Z,0.70
2018-12-21T04:20:20.884Z,0.70
2018-12-21T04:22:50.290Z,0.60
2018-12-21T04:25:19.683Z,0.70
2018-12-21T04:27:49.612Z,0.80
2018-12-21T04:30:18.710Z,0.70
2018-12-21T04:32:48.539Z,0.70
2018-12-21T04:35:17.640Z,0.80
2018-12-21T04:37:46.987Z,0.80
2018-12-21T04:40:16.129Z,0.70
2018-12-21T04:42:45.226Z,0.70
2018-12-21T04:45:14.327Z,0.70
2018-12-21T04:47:43.840Z,0.80
2018-12-21T04:50:13.045Z,0.70
2018-12-21T04:52:43.332Z,0.70
2018-12-21T04:55:12.745Z,0.70
2018-12-21T04:57:41.659Z,0.70
2018-12-21T05:00:10.656Z,0.70
2018-12-21T05:02:40.062Z,0.70
2018-12-21T05:05:09.058Z,0.60
2018-12-21T05:07:38.331Z,0.60
2018-12-21T05:10:08.276Z,0.60
2018-12-21T05:12:37.272Z,0.60
2018-12-21T05:15:06.679Z,0.60
2018-12-21T05:17:35.675Z,0.50
2018-12-21T05:20:05.315Z,0.50
2018-12-21T05:22:34.488Z,0.50
2018-12-21T05:25:03.687Z,0.50
2018-12-21T05:27:32.685Z,0.60
2018-12-21T05:30:01.784Z,0.60
2018-12-21T05:32:30.771Z,0.60
2018-12-21T05:34:59.788Z,0.60
2018-12-21T05:37:29.079Z,0.60
2018-12-21T05:39:58.171Z,0.70
2018-12-21T05:42:27.379Z,0.60
2018-12-21T05:44:56.681Z,0.60
2018-12-21T05:47:25.678Z,0.60
2018-12-21T05:49:54.774Z,0.60
2018-12-21T05:52:23.773Z,0.60
2018-12-21T05:54:52.868Z,0.50
2018-12-21T05:57:22.311Z,0.50
2018-12-21T05:59:51.581Z,0.50
2018-12-21T06:02:20.574Z,0.60
2018-12-21T06:04:50.289Z,0.50
2018-12-21T06:07:19.386Z,0.50
2018-12-21T06:09:48.382Z,0.50
2018-12-21T06:12:17.668Z,0.50
2018-12-21T06:14:46.782Z,0.40
2018-12-21T06:17:16.087Z,0.40
2018-12-21T06:19:45.184Z,0.40
2018-12-21T06:22:14.287Z,0.50
2018-12-21T06:24:43.564Z,0.50
2018-12-21T06:27:12.480Z,0.50
2018-12-21T06:29:41.681Z,0.50
2018-12-21T06:32:10.677Z,0.50
2018-12-21T06:34:39.776Z,0.50
2018-12-21T06:37:08.873Z,0.50
2018-12-21T06:39:38.075Z,0.60
2018-12-21T06:42:07.684Z,0.50
2018-12-21T06:44:36.784Z,0.40
2018-12-21T06:47:06.205Z,0.40
2018-12-21T06:49:35.287Z,0.50
2018-12-21T06:52:04.707Z,0.50
2018-12-21T06:54:33.690Z,0.50
2018-12-21T06:57:02.788Z,0.50
2018-12-21T06:59:31.886Z,0.50
2018-12-21T07:02:01.394Z,0.50
2018-12-21T07:04:30.475Z,0.40
2018-12-21T07:07:00.031Z,0.50
2018-12-21T07:09:29.023Z,0.50
2018-12-21T07:11:58.580Z,0.50
2018-12-21T07:14:28.217Z,0.50
2018-12-21T07:16:57.214Z,0.40
2018-12-21T07:19:26.517Z,0.50
2018-12-21T07:21:55.819Z,0.40
2018-12-21T07:24:25.735Z,0.40
2018-12-21T07:26:54.732Z,0.40
2018-12-21T07:29:23.948Z,0.40
2018-12-21T07:31:53.033Z,0.30
2018-12-21T07:34:21.991Z,0.40
2018-12-21T07:36:51.091Z,0.40
2018-12-21T07:39:20.075Z,0.40
2018-12-21T07:41:49.118Z,0.30
2018-12-21T07:44:18.932Z,0.30
2018-12-21T07:46:47.928Z,0.30
2018-12-21T07:49:16.997Z,0.40
2018-12-21T07:51:46.128Z,0.40
2018-12-21T07:54:15.632Z,0.40
2018-12-21T07:56:44.629Z,0.50
2018-12-21T07:59:13.727Z,0.50
2018-12-21T08:01:42.826Z,0.50
2018-12-21T08:04:12.128Z,0.50
2018-12-21T08:06:41.225Z,0.50
2018-12-21T08:09:10.222Z,0.40
2018-12-21T08:11:39.456Z,0.40
2018-12-21T08:14:09.032Z,0.50
2018-12-21T08:16:38.399Z,0.50
2018-12-21T08:19:07.534Z,0.50
2018-12-21T08:21:36.655Z,0.40
2018-12-21T08:24:06.039Z,0.40
2018-12-21T08:26:35.036Z,0.40
2018-12-21T08:29:04.645Z,0.40
2018-12-21T08:31:33.710Z,0.40
2018-12-21T08:34:02.879Z,0.40
2018-12-21T08:36:32.043Z,0.40
2018-12-21T08:39:00.999Z,0.40
2018-12-21T08:41:30.035Z,0.30
2018-12-21T08:43:59.541Z,0.40
2018-12-21T08:46:28.538Z,0.30
2018-12-21T08:48:57.740Z,0.40
2018-12-21T08:51:26.939Z,0.30
2018-12-21T08:53:56.036Z,0.30
2018-12-21T08:56:25.136Z,0.30
2018-12-21T08:58:54.107Z,0.30
2018-12-21T09:01:23.091Z,0.30
2018-12-21T09:03:52.021Z,0.40
2018-12-21T09:06:21.136Z,0.40
2018-12-21T09:08:50.328Z,0.40
2018-12-21T09:11:19.724Z,0.30
2018-12-21T09:13:49.034Z,0.30
2018-12-21T09:16:18.232Z,0.30
2018-12-21T09:18:47.951Z,0.30
2018-12-21T09:21:17.038Z,0.30
2018-12-21T09:23:46.035Z,0.30
2018-12-21T09:26:16.200Z,0.20
2018-12-21T09:28:45.560Z,0.20
2018-12-21T09:31:15.376Z,0.20
2018-12-21T09:33:44.276Z,0.20
2018-12-21T09:36:13.264Z,0.20
2018-12-21T09:38:42.226Z,0.20
2018-12-21T09:41:11.256Z,0.20
2018-12-21T09:43:40.345Z,0.20
2018-12-21T09:46:09.761Z,0.20
2018-12-21T09:48:38.756Z,0.20
2018-12-21T09:51:08.469Z,0.20
2018-12-21T09:53:37.462Z,0.30
2018-12-21T09:56:06.560Z,0.20
2018-12-21T09:58:35.515Z,0.30
2018-12-21T10:01:04.827Z,0.30
2018-12-21T10:03:33.935Z,0.30
2018-12-21T10:06:03.120Z,0.20
2018-12-21T10:08:32.873Z,0.30
2018-12-21T10:11:02.409Z,0.30
2018-12-21T10:13:32.806Z,0.30
2018-12-21T10:16:01.779Z,0.30
2018-12-21T10:18:31.004Z,0.30
2018-12-21T10:21:00.510Z,0.30
2018-12-21T10:23:29.506Z,0.30
2018-12-21T10:25:58.603Z,0.30
2018-12-21T10:28:27.575Z,0.30
2018-12-21T10:30:56.547Z,0.30
2018-12-21T10:33:25.524Z,0.40
2018-12-21T10:35:55.067Z,0.40
2018-12-21T10:38:24.195Z,0.40
2018-12-21T10:40:53.099Z,0.30
2018-12-21T10:43:22.495Z,0.40
2018-12-21T10:45:52.208Z,0.30
2018-12-21T10:48:21.307Z,0.40
2018-12-21T10:50:50.813Z,0.40
2018-12-21T10:53:20.323Z,0.40
2018-12-21T10:55:49.699Z,0.40
2018-12-21T10:58:18.724Z,0.50
2018-12-21T11:00:47.792Z,0.50
2018-12-21T11:03:16.814Z,0.40
2018-12-21T11:05:46.085Z,0.50
2018-12-21T11:08:15.198Z,0.50
2018-12-21T11:10:45.876Z,0.50
2018-12-21T11:13:16.073Z,0.40
2018-12-21T11:15:45.170Z,0.40
2018-12-21T11:18:14.166Z,0.40
2018-12-21T11:20:43.161Z,0.40
2018-12-21T11:23:12.976Z,0.40
2018-12-21T11:25:42.381Z,0.40
2018-12-21T11:28:11.464Z,0.40
2018-12-21T11:30:40.577Z,0.40
2018-12-21T11:33:09.676Z,0.40
2018-12-21T11:35:38.876Z,0.40
2018-12-21T11:38:08.079Z,0.40
2018-12-21T11:40:37.891Z,0.50
2018-12-21T11:43:06.989Z,0.50
2018-12-21T11:45:36.611Z,0.50
2018-12-21T11:48:05.598Z,0.50
2018-12-21T11:50:35.123Z,0.50
2018-12-21T11:53:04.098Z,0.50
2018-12-21T11:55:33.067Z,0.50
2018-12-21T11:58:02.272Z,0.60
2018-12-21T12:00:31.393Z,0.60
2018-12-21T12:03:00.285Z,0.60
2018-12-21T12:05:29.611Z,0.60
2018-12-21T12:07:58.507Z,0.60
2018-12-21T12:10:27.480Z,0.60
2018-12-21T12:12:56.582Z,0.70
2018-12-21T12:15:25.803Z,0.60
2018-12-21T12:17:54.779Z,0.60
2018-12-21T12:20:24.341Z,0.70
2018-12-21T12:22:53.485Z,0.60
2018-12-21T12:25:22.886Z,0.60
2018-12-21T12:27:51.984Z,0.60
2018-12-21T12:30:21.044Z,0.60
2018-12-21T12:32:50.081Z,0.60
2018-12-21T12:35:19.280Z,0.60
2018-12-21T12:37:48.275Z,0.60
2018-12-21T12:40:17.272Z,0.60
2018-12-21T12:42:46.267Z,0.50
2018-12-21T12:45:15.227Z,0.50
2018-12-21T12:47:44.207Z,0.50
2018-12-21T12:50:13.404Z,0.40
2018-12-21T12:52:42.660Z,0.40
2018-12-21T12:55:11.961Z,0.50
2018-12-21T12:57:41.163Z,0.50
2018-12-21T13:00:10.875Z,0.50
2018-12-21T13:02:39.973Z,0.50
2018-12-21T13:05:09.259Z,0.60
2018-12-21T13:07:38.375Z,0.50
2018-12-21T13:10:09.519Z,0.50
2018-12-21T13:12:38.514Z,0.50
2018-12-21T13:15:08.535Z,0.50
2018-12-21T13:17:37.734Z,0.50
2018-12-21T13:20:08.811Z,0.50
2018-12-21T13:22:37.978Z,0.50
2018-12-21T13:25:11.456Z,0.60
2018-12-21T13:27:38.402Z,0.60
2018-12-21T13:30:08.345Z,0.60
2018-12-21T13:32:37.338Z,0.60
2018-12-21T13:35:06.341Z,0.60
2018-12-21T13:37:35.279Z,0.60
2018-12-21T13:40:06.623Z,0.60
2018-12-21T13:42:35.574Z,0.60
2018-12-21T13:45:06.736Z,0.60
2018-12-21T13:47:35.704Z,0.60
2018-12-21T13:50:07.178Z,0.60
2018-12-21T13:52:36.139Z,0.60
2018-12-21T13:55:05.160Z,0.60
2018-12-21T13:57:34.255Z,0.60
2018-12-21T14:00:05.096Z,0.60
2018-12-21T14:02:34.091Z,0.60
2018-12-21T14:05:03.179Z,0.60
2018-12-21T14:07:32.185Z,0.60
2018-12-21T14:10:01.176Z,0.60
2018-12-21T14:12:30.343Z,0.60
2018-12-21T14:14:59.377Z,0.60
2018-12-21T14:17:28.439Z,0.60
2018-12-21T14:19:57.470Z,0.60
2018-12-21T14:22:26.354Z,0.60
2018-12-21T14:24:55.360Z,0.60
2018-12-21T14:27:25.043Z,0.60
2018-12-21T14:29:53.966Z,0.60
2018-12-21T14:32:22.963Z,0.70
2018-12-21T14:34:52.470Z,0.60
2018-12-21T14:37:21.466Z,0.60
2018-12-21T14:39:50.435Z,0.60
2018-12-21T14:42:19.459Z,0.70
2018-12-21T14:44:48.866Z,0.70
2018-12-21T14:47:18.064Z,0.70
2018-12-21T14:49:47.122Z,0.60
2018-12-21T14:52:16.261Z,0.70
2018-12-21T14:54:45.575Z,0.70
2018-12-21T14:57:14.531Z,0.70
2018-12-21T14:59:43.455Z,0.70
2018-12-21T15:02:12.961Z,0.70
2018-12-21T15:04:42.674Z,0.70
2018-12-21T15:07:11.561Z,0.70
2018-12-21T15:09:41.179Z,0.70
2018-12-21T15:12:10.276Z,0.70
2018-12-21T15:14:39.331Z,0.70
2018-12-21T15:17:08.370Z,0.70
2018-12-21T15:19:37.376Z,0.70
2018-12-21T15:22:06.363Z,0.70
2018-12-21T15:24:35.359Z,0.70
2018-12-21T15:27:04.457Z,0.70
2018-12-21T15:29:33.403Z,0.70
2018-12-21T15:32:02.450Z,0.70
2018-12-21T15:34:32.077Z,0.70
2018-12-21T15:37:00.971Z,0.70
2018-12-21T15:39:30.061Z,0.70
2018-12-21T15:41:59.024Z,0.70
2018-12-21T15:44:28.048Z,0.70
2018-12-21T15:46:57.043Z,0.70
2018-12-21T15:49:26.542Z,0.70
2018-12-21T15:51:55.506Z,0.70
2018-12-21T15:54:24.411Z,0.70
2018-12-21T15:56:53.399Z,0.60
2018-12-21T15:59:22.370Z,0.60
2018-12-21T16:01:51.326Z,0.60
2018-12-21T16:04:20.411Z,0.60
2018-12-21T16:06:49.496Z,0.70
2018-12-21T16:09:18.723Z,0.60
2018-12-21T16:11:47.822Z,0.60
2018-12-21T16:14:16.819Z,0.60
2018-12-21T16:16:45.895Z,0.60
2018-12-21T16:19:15.322Z,0.60
2018-12-21T16:21:44.318Z,0.60
2018-12-21T16:24:13.315Z,0.60
2018-12-21T16:26:42.413Z,0.60
2018-12-21T16:29:11.310Z,0.60
2018-12-21T16:31:40.305Z,0.60
2018-12-21T16:34:09.300Z,0.60
2018-12-21T16:36:38.403Z,0.60
2018-12-21T16:39:07.495Z,0.60
2018-12-21T16:41:37.004Z,0.60
2018-12-21T16:44:05.968Z,0.60
2018-12-21T16:46:34.947Z,0.60
2018-12-21T16:49:03.956Z,0.60
2018-12-21T16:51:32.967Z,0.60
2018-12-21T16:54:01.943Z,0.60
2018-12-21T16:56:30.885Z,0.60
2018-12-21T16:59:00.286Z,0.60
2018-12-21T17:01:29.281Z,0.70
2018-12-21T17:03:58.891Z,0.70
2018-12-21T17:06:28.096Z,0.70
2018-12-21T17:08:57.189Z,0.70
2018-12-21T17:11:26.199Z,0.70
2018-12-21T17:13:55.164Z,0.70
2018-12-21T17:16:24.391Z,0.70
2018-12-21T17:18:53.790Z,0.70
2018-12-21T17:21:22.787Z,0.70
2018-12-21T17:23:52.483Z,0.70
2018-12-21T17:26:21.627Z,0.70
2018-12-21T17:28:50.652Z,0.70
2018-12-21T17:31:19.751Z,0.70
2018-12-21T17:33:48.893Z,0.70
2018-12-21T17:36:17.855Z,0.80
2018-12-21T17:38:46.986Z,0.80
2018-12-21T17:41:15.984Z,0.70
2018-12-21T17:43:45.143Z,0.70
2018-12-21T17:46:14.282Z,0.70
2018-12-21T17:48:43.381Z,0.70
2018-12-21T17:51:12.263Z,0.70
2018-12-21T17:53:41.183Z,0.70
2018-12-21T17:56:10.369Z,0.80
2018-12-21T17:58:39.639Z,0.80
2018-12-21T18:01:08.873Z,0.80
2018-12-21T18:03:38.919Z,0.80
2018-12-21T18:06:07.904Z,0.80
2018-12-21T18:08:36.847Z,0.80
2018-12-21T18:11:05.983Z,0.80
2018-12-21T18:13:34.979Z,0.80
2018-12-21T18:16:04.179Z,0.80
2018-12-21T18:18:33.072Z,0.80
2018-12-21T18:21:02.044Z,0.80
2018-12-21T18:23:31.320Z,0.80
2018-12-21T18:26:00.221Z,0.80
2018-12-21T18:28:29.204Z,0.80
2018-12-21T18:31:01.816Z,0.80
2018-12-21T18:33:30.939Z,0.80
2018-12-21T18:36:00.140Z,0.80
2018-12-21T18:38:29.087Z,0.80
2018-12-21T18:40:58.134Z,0.80
2018-12-21T18:43:27.129Z,0.80
2018-12-21T18:45:56.125Z,0.80
2018-12-21T18:48:25.243Z,0.80
2018-12-21T18:50:54.219Z,0.80
2018-12-21T18:53:23.325Z,0.80
2018-12-21T18:55:52.284Z,0.90
2018-12-21T18:58:21.267Z,0.90
2018-12-21T19:00:50.163Z,0.80
2018-12-21T19:03:19.147Z,0.90
2018-12-21T19:05:48.239Z,0.90
2018-12-21T19:08:17.295Z,0.90
2018-12-21T19:10:46.215Z,0.90
2018-12-21T19:13:15.902Z,0.90
2018-12-21T19:15:45.511Z,0.90
2018-12-21T19:18:14.508Z,0.90
2018-12-21T19:20:44.015Z,0.90
2018-12-21T19:23:13.833Z,0.80
2018-12-21T19:25:42.908Z,0.90
2018-12-21T19:28:11.926Z,0.90
2018-12-21T19:30:41.126Z,0.90
2018-12-21T19:33:10.122Z,0.90
2018-12-21T19:35:39.656Z,0.90
2018-12-21T19:38:08.564Z,0.90
2018-12-21T19:40:37.623Z,0.90
2018-12-21T19:43:06.905Z,0.90
2018-12-21T19:45:36.815Z,0.90
2018-12-21T19:48:05.940Z,0.80
2018-12-21T19:50:35.550Z,0.90
2018-12-21T19:53:05.059Z,0.90
2018-12-21T19:55:45.721Z,0.90
2018-12-21T19:58:14.603Z,1.00
2018-12-21T20:00:43.676Z,1.00
2018-12-21T20:03:12.709Z,0.90
2018-12-21T20:05:41.982Z,0.90
2018-12-21T20:08:11.072Z,0.90
2018-12-21T20:10:40.167Z,0.90
2018-12-21T20:13:09.156Z,1.00
2018-12-21T20:15:38.406Z,1.00
2018-12-21T20:18:07.812Z,1.00
2018-12-21T20:20:37.730Z,1.00
2018-12-21T20:23:06.672Z,1.00
2018-12-21T20:25:35.571Z,1.00
2018-12-21T20:28:05.028Z,1.00
2018-12-21T20:30:34.262Z,1.00
2018-12-21T20:33:03.327Z,1.00
2018-12-21T20:35:32.523Z,1.00
2018-12-21T20:38:03.223Z,1.00
2018-12-21T20:40:32.279Z,1.00
2018-12-21T20:43:01.392Z,1.00
2018-12-21T20:45:30.928Z,1.00
2018-12-21T20:47:59.858Z,1.00
2018-12-21T20:50:29.366Z,1.00
2018-12-21T20:52:58.259Z,1.00
2018-12-21T20:55:27.256Z,1.00
2018-12-21T20:57:56.354Z,1.00
2018-12-21T21:00:25.350Z,1.00
2018-12-21T21:02:54.328Z,1.00
2018-12-21T21:05:23.299Z,1.00
2018-12-21T21:07:52.285Z,1.00
2018-12-21T21:10:21.455Z,1.00
2018-12-21T21:12:50.637Z,1.00
2018-12-21T21:15:19.708Z,1.00
2018-12-21T21:17:48.630Z,1.00
2018-12-21T21:20:18.446Z,1.00
2018-12-21T21:22:47.442Z,1.00
2018-12-21T21:25:16.643Z,1.00
2018-12-21T21:27:45.599Z,1.00
2018-12-21T21:30:16.747Z,1.00
2018-12-21T21:32:45.779Z,1.10
2018-12-21T21:35:14.876Z,1.10
2018-12-21T21:37:43.772Z,1.10
2018-12-21T21:40:16.195Z,1.00
2018-12-21T21:42:46.371Z,1.10
2018-12-21T21:45:15.621Z,1.10
2018-12-21T21:47:44.567Z,1.10
2018-12-21T21:50:13.766Z,1.10
2018-12-21T21:52:42.716Z,1.10
2018-12-21T21:55:11.809Z,1.10
2018-12-21T21:57:40.720Z,1.10
2018-12-21T22:00:11.489Z,1.10
2018-12-21T22:02:41.024Z,1.10
2018-12-21T22:05:10.005Z,1.10
2018-12-21T22:07:38.992Z,1.10
2018-12-21T22:10:08.842Z,1.10
2018-12-21T22:12:37.903Z,1.10
2018-12-21T22:15:07.724Z,1.10
2018-12-21T22:17:36.817Z,1.10
2018-12-21T22:20:07.947Z,1.10
2018-12-21T22:22:37.067Z,1.10
2018-12-21T22:25:06.031Z,1.10
2018-12-21T22:27:35.052Z,1.10
2018-12-21T22:30:06.632Z,1.10
2018-12-21T22:32:35.602Z,1.20
2018-12-21T22:35:05.520Z,1.10
2018-12-21T22:37:34.472Z,1.10
2018-12-21T22:40:04.230Z,1.10
2018-12-21T22:42:33.103Z,1.10
2018-12-21T22:45:02.022Z,1.10
2018-12-21T22:47:31.027Z,1.10
2018-12-21T22:50:00.212Z,1.10
2018-12-21T22:52:29.208Z,1.00
2018-12-21T22:54:58.427Z,1.10
2018-12-21T22:57:28.121Z,1.00
2018-12-21T22:59:57.219Z,1.00
2018-12-21T23:02:26.215Z,1.10
2018-12-21T23:04:55.214Z,1.10
2018-12-21T23:07:24.106Z,1.10
2018-12-21T23:09:53.731Z,1.10
2018-12-21T23:12:22.714Z,1.10
2018-12-21T23:14:51.673Z,1.10
2018-12-21T23:17:20.705Z,1.10
2018-12-21T23:19:49.583Z,1.10
2018-12-21T23:22:19.210Z,1.10
2018-12-21T23:24:48.081Z,1.10
2018-12-21T23:27:17.918Z,1.10
2018-12-21T23:29:47.426Z,1.10
2018-12-21T23:32:16.319Z,1.10
2018-12-21T23:34:45.826Z,1.10
2018-12-21T23:37:14.824Z,1.10
2018-12-21T23:39:43.716Z,1.10
2018-12-21T23:42:13.229Z,1.10
2018-12-21T23:44:42.175Z,1.10
2018-12-21T23:47:11.116Z,1.10
2018-12-21T23:49:40.131Z,1.20
2018-12-21T23:52:09.415Z,1.20
2018-12-21T23:54:38.413Z,1.20
2018-12-21T23:57:07.749Z,1.20
2018-12-21T23:59:36.816Z,1.20
